sensor_id;sensor_type;location;lat;lon;timestamp;P1;durP1;ratioP1;P2;durP2;ratioP2
15155;SDS011;7678;50.058;8.306;2023-04-06T00:02:17;6.20;;;5.03;;
15155;SDS011;7678;50.058;8.306;2023-04-06T00:04:45;6.63;;;5.47;;
15155;SDS011;7678;50.058;8.306;2023-04-06T00:07:15;6.67;;;5.10;;
15155;SDS011;7678;50.058;8.306;2023-04-06T00:09:43;6.13;;;4.20;;
15155;SDS011;7678;50.058;8.306;2023-04-06T00:12:11;5.87;;;4.60;;
15155;SDS011;7678;50.058;8.306;2023-04-06T00:14:39;7.90;;;5.40;;
15155;SDS011;7678;50.058;8.306;2023-04-06T00:17:07;8.00;;;4.67;;
15155;SDS011;7678;50.058;8.306;2023-04-06T00:19:36;5.80;;;4.50;;
15155;SDS011;7678;50.058;8.306;2023-04-06T00:22:04;7.17;;;5.30;;
15155;SDS011;7678;50.058;8.306;2023-04-06T00:24:34;6.53;;;4.53;;
15155;SDS011;7678;50.058;8.306;2023-04-06T00:27:02;7.27;;;4.40;;
15155;SDS011;7678;50.058;8.306;2023-04-06T00:29:30;6.47;;;4.90;;
15155;SDS011;7678;50.058;8.306;2023-04-06T00:31:58;5.23;;;4.30;;
15155;SDS011;7678;50.058;8.306;2023-04-06T00:34:26;6.23;;;4.43;;
15155;SDS011;7678;50.058;8.306;2023-04-06T00:36:54;6.10;;;4.30;;
15155;SDS011;7678;50.058;8.306;2023-04-06T00:39:22;5.00;;;4.10;;
15155;SDS011;7678;50.058;8.306;2023-04-06T00:41:52;6.50;;;4.00;;
15155;SDS011;7678;50.058;8.306;2023-04-06T00:44:21;5.00;;;3.90;;
15155;SDS011;7678;50.058;8.306;2023-04-06T00:46:49;5.80;;;4.10;;
15155;SDS011;7678;50.058;8.306;2023-04-06T00:49:17;4.93;;;4.20;;
15155;SDS011;7678;50.058;8.306;2023-04-06T00:51:45;6.63;;;4.10;;
15155;SDS011;7678;50.058;8.306;2023-04-06T00:54:14;5.37;;;3.97;;
15155;SDS011;7678;50.058;8.306;2023-04-06T00:56:42;5.93;;;4.63;;
15155;SDS011;7678;50.058;8.306;2023-04-06T00:59:12;5.77;;;4.40;;
15155;SDS011;7678;50.058;8.306;2023-04-06T01:01:40;6.10;;;4.17;;
15155;SDS011;7678;50.058;8.306;2023-04-06T01:04:08;6.33;;;4.43;;
15155;SDS011;7678;50.058;8.306;2023-04-06T01:06:36;5.33;;;4.00;;
15155;SDS011;7678;50.058;8.306;2023-04-06T01:09:04;5.83;;;4.27;;
15155;SDS011;7678;50.058;8.306;2023-04-06T01:11:33;4.90;;;4.10;;
15155;SDS011;7678;50.058;8.306;2023-04-06T01:14:04;4.57;;;3.80;;
15155;SDS011;7678;50.058;8.306;2023-04-06T01:16:34;5.90;;;4.27;;
15155;SDS011;7678;50.058;8.306;2023-04-06T01:19:06;5.23;;;4.23;;
15155;SDS011;7678;50.058;8.306;2023-04-06T01:21:36;6.03;;;4.47;;
15155;SDS011;7678;50.058;8.306;2023-04-06T01:24:06;6.37;;;4.50;;
15155;SDS011;7678;50.058;8.306;2023-04-06T01:26:36;6.17;;;4.10;;
15155;SDS011;7678;50.058;8.306;2023-04-06T01:29:05;6.67;;;4.53;;
15155;SDS011;7678;50.058;8.306;2023-04-06T01:31:34;5.77;;;4.40;;
15155;SDS011;7678;50.058;8.306;2023-04-06T01:34:02;5.63;;;4.60;;
15155;SDS011;7678;50.058;8.306;2023-04-06T01:36:31;6.47;;;4.70;;
15155;SDS011;7678;50.058;8.306;2023-04-06T01:38:59;4.67;;;4.17;;
15155;SDS011;7678;50.058;8.306;2023-04-06T01:41:28;6.80;;;4.60;;
15155;SDS011;7678;50.058;8.306;2023-04-06T01:43:56;5.87;;;4.87;;
15155;SDS011;7678;50.058;8.306;2023-04-06T01:46:25;7.07;;;4.60;;
15155;SDS011;7678;50.058;8.306;2023-04-06T01:48:53;8.00;;;4.93;;
15155;SDS011;7678;50.058;8.306;2023-04-06T01:51:21;8.07;;;4.90;;
15155;SDS011;7678;50.058;8.306;2023-04-06T01:53:50;5.97;;;4.47;;
15155;SDS011;7678;50.058;8.306;2023-04-06T01:56:18;7.10;;;4.90;;
15155;SDS011;7678;50.058;8.306;2023-04-06T01:58:48;6.97;;;4.87;;
15155;SDS011;7678;50.058;8.306;2023-04-06T02:01:16;7.47;;;4.43;;
15155;SDS011;7678;50.058;8.306;2023-04-06T02:03:45;6.53;;;4.83;;
15155;SDS011;7678;50.058;8.306;2023-04-06T02:06:13;6.80;;;5.53;;
15155;SDS011;7678;50.058;8.306;2023-04-06T02:08:41;9.03;;;5.17;;
15155;SDS011;7678;50.058;8.306;2023-04-06T02:11:09;10.13;;;5.10;;
15155;SDS011;7678;50.058;8.306;2023-04-06T02:13:37;6.37;;;5.10;;
15155;SDS011;7678;50.058;8.306;2023-04-06T02:16:07;6.63;;;5.10;;
15155;SDS011;7678;50.058;8.306;2023-04-06T02:18:35;7.17;;;4.70;;
15155;SDS011;7678;50.058;8.306;2023-04-06T02:21:03;6.57;;;5.30;;
15155;SDS011;7678;50.058;8.306;2023-04-06T02:23:31;5.93;;;5.20;;
15155;SDS011;7678;50.058;8.306;2023-04-06T02:25:59;7.33;;;5.37;;
15155;SDS011;7678;50.058;8.306;2023-04-06T02:28:27;6.67;;;5.30;;
15155;SDS011;7678;50.058;8.306;2023-04-06T02:30:55;6.83;;;5.30;;
15155;SDS011;7678;50.058;8.306;2023-04-06T02:33:25;6.37;;;4.87;;
15155;SDS011;7678;50.058;8.306;2023-04-06T02:35:53;6.63;;;4.97;;
15155;SDS011;7678;50.058;8.306;2023-04-06T02:38:21;7.13;;;5.20;;
15155;SDS011;7678;50.058;8.306;2023-04-06T02:40:49;6.57;;;5.00;;
15155;SDS011;7678;50.058;8.306;2023-04-06T02:43:18;7.47;;;5.20;;
15155;SDS011;7678;50.058;8.306;2023-04-06T02:45:46;5.97;;;5.07;;
15155;SDS011;7678;50.058;8.306;2023-04-06T02:48:14;5.27;;;4.77;;
15155;SDS011;7678;50.058;8.306;2023-04-06T02:50:44;9.10;;;5.27;;
15155;SDS011;7678;50.058;8.306;2023-04-06T02:53:13;6.87;;;4.77;;
15155;SDS011;7678;50.058;8.306;2023-04-06T02:55:41;7.63;;;5.37;;
15155;SDS011;7678;50.058;8.306;2023-04-06T02:58:09;5.80;;;5.17;;
15155;SDS011;7678;50.058;8.306;2023-04-06T03:00:37;6.80;;;5.33;;
15155;SDS011;7678;50.058;8.306;2023-04-06T03:03:05;6.43;;;5.20;;
15155;SDS011;7678;50.058;8.306;2023-04-06T03:05:34;8.90;;;5.33;;
15155;SDS011;7678;50.058;8.306;2023-04-06T03:08:05;6.00;;;5.20;;
15155;SDS011;7678;50.058;8.306;2023-04-06T03:10:33;6.30;;;5.07;;
15155;SDS011;7678;50.058;8.306;2023-04-06T03:13:01;5.47;;;4.73;;
15155;SDS011;7678;50.058;8.306;2023-04-06T03:15:29;6.27;;;5.30;;
15155;SDS011;7678;50.058;8.306;2023-04-06T03:17:57;5.87;;;5.13;;
15155;SDS011;7678;50.058;8.306;2023-04-06T03:20:26;6.20;;;5.33;;
15155;SDS011;7678;50.058;8.306;2023-04-06T03:22:54;7.43;;;4.97;;
15155;SDS011;7678;50.058;8.306;2023-04-06T03:25:23;7.57;;;4.90;;
15155;SDS011;7678;50.058;8.306;2023-04-06T03:27:52;5.87;;;4.70;;
15155;SDS011;7678;50.058;8.306;2023-04-06T03:30:20;5.93;;;4.87;;
15155;SDS011;7678;50.058;8.306;2023-04-06T03:32:48;7.80;;;5.83;;
15155;SDS011;7678;50.058;8.306;2023-04-06T03:35:16;6.27;;;4.80;;
15155;SDS011;7678;50.058;8.306;2023-04-06T03:37:44;6.83;;;4.83;;
15155;SDS011;7678;50.058;8.306;2023-04-06T03:40:12;6.20;;;4.90;;
15155;SDS011;7678;50.058;8.306;2023-04-06T03:42:42;6.60;;;4.93;;
15155;SDS011;7678;50.058;8.306;2023-04-06T03:45:10;9.93;;;5.53;;
15155;SDS011;7678;50.058;8.306;2023-04-06T03:47:39;8.60;;;5.97;;
15155;SDS011;7678;50.058;8.306;2023-04-06T03:50:07;7.93;;;5.50;;
15155;SDS011;7678;50.058;8.306;2023-04-06T03:52:36;6.10;;;5.40;;
15155;SDS011;7678;50.058;8.306;2023-04-06T03:55:05;7.00;;;6.00;;
15155;SDS011;7678;50.058;8.306;2023-04-06T03:57:34;6.20;;;5.30;;
15155;SDS011;7678;50.058;8.306;2023-04-06T04:00:06;7.73;;;5.63;;
15155;SDS011;7678;50.058;8.306;2023-04-06T04:02:35;6.47;;;5.40;;
15155;SDS011;7678;50.058;8.306;2023-04-06T04:05:03;8.50;;;5.93;;
15155;SDS011;7678;50.058;8.306;2023-04-06T04:07:32;7.77;;;6.07;;
15155;SDS011;7678;50.058;8.306;2023-04-06T04:10:00;9.20;;;5.63;;
15155;SDS011;7678;50.058;8.306;2023-04-06T04:12:28;7.53;;;5.63;;
15155;SDS011;7678;50.058;8.306;2023-04-06T04:14:56;8.50;;;5.17;;
15155;SDS011;7678;50.058;8.306;2023-04-06T04:17:25;7.20;;;5.33;;
15155;SDS011;7678;50.058;8.306;2023-04-06T04:19:53;7.93;;;5.73;;
15155;SDS011;7678;50.058;8.306;2023-04-06T04:22:21;9.10;;;5.87;;
15155;SDS011;7678;50.058;8.306;2023-04-06T04:24:49;6.97;;;5.40;;
15155;SDS011;7678;50.058;8.306;2023-04-06T04:27:17;8.63;;;5.30;;
15155;SDS011;7678;50.058;8.306;2023-04-06T04:29:46;7.97;;;5.07;;
15155;SDS011;7678;50.058;8.306;2023-04-06T04:32:15;5.93;;;5.33;;
15155;SDS011;7678;50.058;8.306;2023-04-06T04:34:45;9.87;;;6.13;;
15155;SDS011;7678;50.058;8.306;2023-04-06T04:37:13;8.67;;;6.10;;
15155;SDS011;7678;50.058;8.306;2023-04-06T04:39:41;7.50;;;5.53;;
15155;SDS011;7678;50.058;8.306;2023-04-06T04:42:09;6.43;;;5.60;;
15155;SDS011;7678;50.058;8.306;2023-04-06T04:44:37;6.13;;;5.53;;
15155;SDS011;7678;50.058;8.306;2023-04-06T04:47:05;7.80;;;5.83;;
15155;SDS011;7678;50.058;8.306;2023-04-06T04:49:33;7.20;;;5.33;;
15155;SDS011;7678;50.058;8.306;2023-04-06T04:52:03;8.03;;;6.07;;
15155;SDS011;7678;50.058;8.306;2023-04-06T04:54:31;7.77;;;6.20;;
15155;SDS011;7678;50.058;8.306;2023-04-06T04:56:59;12.13;;;6.60;;
15155;SDS011;7678;50.058;8.306;2023-04-06T04:59:27;7.87;;;5.67;;
15155;SDS011;7678;50.058;8.306;2023-04-06T05:01:56;8.33;;;6.13;;
15155;SDS011;7678;50.058;8.306;2023-04-06T05:04:24;10.00;;;6.77;;
15155;SDS011;7678;50.058;8.306;2023-04-06T05:07:02;6.93;;;6.10;;
15155;SDS011;7678;50.058;8.306;2023-04-06T05:09:31;6.83;;;5.90;;
15155;SDS011;7678;50.058;8.306;2023-04-06T05:12:00;7.60;;;5.70;;
15155;SDS011;7678;50.058;8.306;2023-04-06T05:14:28;7.20;;;6.50;;
15155;SDS011;7678;50.058;8.306;2023-04-06T05:16:56;10.07;;;6.17;;
15155;SDS011;7678;50.058;8.306;2023-04-06T05:19:24;8.73;;;6.77;;
15155;SDS011;7678;50.058;8.306;2023-04-06T05:21:53;9.20;;;7.03;;
15155;SDS011;7678;50.058;8.306;2023-04-06T05:24:22;8.97;;;6.47;;
15155;SDS011;7678;50.058;8.306;2023-04-06T05:26:51;10.73;;;6.63;;
15155;SDS011;7678;50.058;8.306;2023-04-06T05:29:20;7.73;;;6.20;;
15155;SDS011;7678;50.058;8.306;2023-04-06T05:31:48;8.50;;;6.50;;
15155;SDS011;7678;50.058;8.306;2023-04-06T05:34:16;10.03;;;6.73;;
15155;SDS011;7678;50.058;8.306;2023-04-06T05:36:44;12.43;;;7.10;;
15155;SDS011;7678;50.058;8.306;2023-04-06T05:39:12;11.37;;;5.90;;
15155;SDS011;7678;50.058;8.306;2023-04-06T05:41:42;8.90;;;6.53;;
15155;SDS011;7678;50.058;8.306;2023-04-06T05:44:11;8.50;;;6.57;;
15155;SDS011;7678;50.058;8.306;2023-04-06T05:46:39;10.27;;;6.37;;
15155;SDS011;7678;50.058;8.306;2023-04-06T05:49:07;9.43;;;7.17;;
15155;SDS011;7678;50.058;8.306;2023-04-06T05:51:36;7.93;;;6.17;;
15155;SDS011;7678;50.058;8.306;2023-04-06T05:54:04;8.80;;;6.63;;
15155;SDS011;7678;50.058;8.306;2023-04-06T05:56:32;8.23;;;5.87;;
15155;SDS011;7678;50.058;8.306;2023-04-06T05:59:02;7.93;;;6.60;;
15155;SDS011;7678;50.058;8.306;2023-04-06T06:01:30;8.57;;;5.53;;
15155;SDS011;7678;50.058;8.306;2023-04-06T06:03:59;10.50;;;7.00;;
15155;SDS011;7678;50.058;8.306;2023-04-06T06:06:28;9.07;;;6.60;;
15155;SDS011;7678;50.058;8.306;2023-04-06T06:08:56;11.73;;;7.30;;
15155;SDS011;7678;50.058;8.306;2023-04-06T06:11:27;12.83;;;7.30;;
15155;SDS011;7678;50.058;8.306;2023-04-06T06:13:55;9.23;;;6.50;;
15155;SDS011;7678;50.058;8.306;2023-04-06T06:16:24;9.10;;;6.63;;
15155;SDS011;7678;50.058;8.306;2023-04-06T06:18:53;11.43;;;7.30;;
15155;SDS011;7678;50.058;8.306;2023-04-06T06:21:21;9.43;;;7.03;;
15155;SDS011;7678;50.058;8.306;2023-04-06T06:23:49;10.23;;;6.90;;
15155;SDS011;7678;50.058;8.306;2023-04-06T06:26:17;12.03;;;6.60;;
15155;SDS011;7678;50.058;8.306;2023-04-06T06:28:45;14.57;;;7.17;;
15155;SDS011;7678;50.058;8.306;2023-04-06T06:31:13;12.10;;;7.40;;
15155;SDS011;7678;50.058;8.306;2023-04-06T06:33:43;11.83;;;7.30;;
15155;SDS011;7678;50.058;8.306;2023-04-06T06:36:11;8.80;;;6.60;;
15155;SDS011;7678;50.058;8.306;2023-04-06T06:38:39;10.70;;;6.23;;
15155;SDS011;7678;50.058;8.306;2023-04-06T06:41:07;12.23;;;6.20;;
15155;SDS011;7678;50.058;8.306;2023-04-06T06:43:35;11.67;;;7.30;;
15155;SDS011;7678;50.058;8.306;2023-04-06T06:46:04;11.13;;;6.50;;
15155;SDS011;7678;50.058;8.306;2023-04-06T06:48:32;12.50;;;7.07;;
15155;SDS011;7678;50.058;8.306;2023-04-06T06:51:02;9.50;;;7.00;;
15155;SDS011;7678;50.058;8.306;2023-04-06T06:53:31;9.30;;;6.27;;
15155;SDS011;7678;50.058;8.306;2023-04-06T06:55:59;8.43;;;6.80;;
15155;SDS011;7678;50.058;8.306;2023-04-06T06:58:27;11.90;;;6.70;;
15155;SDS011;7678;50.058;8.306;2023-04-06T07:00:55;10.03;;;7.60;;
15155;SDS011;7678;50.058;8.306;2023-04-06T07:03:24;11.87;;;7.07;;
15155;SDS011;7678;50.058;8.306;2023-04-06T07:05:54;11.70;;;7.37;;
15155;SDS011;7678;50.058;8.306;2023-04-06T07:08:24;12.10;;;8.20;;
15155;SDS011;7678;50.058;8.306;2023-04-06T07:10:52;11.77;;;8.00;;
15155;SDS011;7678;50.058;8.306;2023-04-06T07:13:22;12.33;;;8.03;;
15155;SDS011;7678;50.058;8.306;2023-04-06T07:15:50;12.93;;;8.20;;
15155;SDS011;7678;50.058;8.306;2023-04-06T07:18:19;10.73;;;7.27;;
15155;SDS011;7678;50.058;8.306;2023-04-06T07:20:47;11.23;;;8.13;;
15155;SDS011;7678;50.058;8.306;2023-04-06T07:23:15;11.30;;;7.53;;
15155;SDS011;7678;50.058;8.306;2023-04-06T07:25:44;12.07;;;9.30;;
15155;SDS011;7678;50.058;8.306;2023-04-06T07:28:12;11.47;;;8.33;;
15155;SDS011;7678;50.058;8.306;2023-04-06T07:30:42;13.60;;;8.67;;
15155;SDS011;7678;50.058;8.306;2023-04-06T07:33:11;14.97;;;9.13;;
15155;SDS011;7678;50.058;8.306;2023-04-06T07:35:39;13.27;;;8.43;;
15155;SDS011;7678;50.058;8.306;2023-04-06T07:38:07;13.53;;;9.43;;
15155;SDS011;7678;50.058;8.306;2023-04-06T07:40:35;12.77;;;8.30;;
15155;SDS011;7678;50.058;8.306;2023-04-06T07:43:05;12.73;;;8.33;;
15155;SDS011;7678;50.058;8.306;2023-04-06T07:45:34;17.80;;;9.27;;
15155;SDS011;7678;50.058;8.306;2023-04-06T07:48:03;16.37;;;8.30;;
15155;SDS011;7678;50.058;8.306;2023-04-06T07:50:34;14.17;;;7.90;;
15155;SDS011;7678;50.058;8.306;2023-04-06T07:53:02;11.20;;;7.93;;
15155;SDS011;7678;50.058;8.306;2023-04-06T07:55:30;12.87;;;8.07;;
15155;SDS011;7678;50.058;8.306;2023-04-06T07:57:58;10.90;;;8.53;;
15155;SDS011;7678;50.058;8.306;2023-04-06T08:00:27;15.87;;;9.10;;
15155;SDS011;7678;50.058;8.306;2023-04-06T08:02:55;11.87;;;8.07;;
15155;SDS011;7678;50.058;8.306;2023-04-06T08:05:24;14.77;;;8.60;;
15155;SDS011;7678;50.058;8.306;2023-04-06T08:07:53;13.80;;;8.27;;
15155;SDS011;7678;50.058;8.306;2023-04-06T08:10:21;13.53;;;9.63;;
15155;SDS011;7678;50.058;8.306;2023-04-06T08:12:49;11.67;;;8.70;;
15155;SDS011;7678;50.058;8.306;2023-04-06T08:15:17;14.33;;;8.93;;
15155;SDS011;7678;50.058;8.306;2023-04-06T08:17:47;15.23;;;9.07;;
15155;SDS011;7678;50.058;8.306;2023-04-06T08:20:15;12.67;;;8.37;;
15155;SDS011;7678;50.058;8.306;2023-04-06T08:22:43;12.97;;;8.07;;
15155;SDS011;7678;50.058;8.306;2023-04-06T08:25:11;12.17;;;8.20;;
15155;SDS011;7678;50.058;8.306;2023-04-06T08:27:39;12.10;;;8.33;;
15155;SDS011;7678;50.058;8.306;2023-04-06T08:30:07;11.10;;;8.60;;
15155;SDS011;7678;50.058;8.306;2023-04-06T08:32:36;12.53;;;8.20;;
15155;SDS011;7678;50.058;8.306;2023-04-06T08:35:06;10.27;;;7.33;;
15155;SDS011;7678;50.058;8.306;2023-04-06T08:37:34;12.77;;;8.33;;
15155;SDS011;7678;50.058;8.306;2023-04-06T08:40:02;11.80;;;8.30;;
15155;SDS011;7678;50.058;8.306;2023-04-06T08:42:32;15.97;;;7.87;;
15155;SDS011;7678;50.058;8.306;2023-04-06T08:45:00;12.20;;;8.00;;
15155;SDS011;7678;50.058;8.306;2023-04-06T08:47:29;11.57;;;7.77;;
15155;SDS011;7678;50.058;8.306;2023-04-06T08:49:57;10.63;;;7.73;;
15155;SDS011;7678;50.058;8.306;2023-04-06T08:52:29;11.10;;;7.80;;
15155;SDS011;7678;50.058;8.306;2023-04-06T08:55:00;12.50;;;8.07;;
15155;SDS011;7678;50.058;8.306;2023-04-06T08:57:28;12.63;;;7.33;;
15155;SDS011;7678;50.058;8.306;2023-04-06T08:59:58;10.77;;;7.60;;
15155;SDS011;7678;50.058;8.306;2023-04-06T09:02:28;19.07;;;9.10;;
15155;SDS011;7678;50.058;8.306;2023-04-06T09:04:57;12.37;;;8.23;;
15155;SDS011;7678;50.058;8.306;2023-04-06T09:07:28;12.93;;;7.83;;
15155;SDS011;7678;50.058;8.306;2023-04-06T09:09:57;15.03;;;8.00;;
15155;SDS011;7678;50.058;8.306;2023-04-06T09:12:25;12.77;;;7.57;;
15155;SDS011;7678;50.058;8.306;2023-04-06T09:14:55;11.83;;;8.27;;
15155;SDS011;7678;50.058;8.306;2023-04-06T09:17:24;10.80;;;8.03;;
15155;SDS011;7678;50.058;8.306;2023-04-06T09:19:53;13.47;;;8.27;;
15155;SDS011;7678;50.058;8.306;2023-04-06T09:22:22;12.60;;;8.40;;
15155;SDS011;7678;50.058;8.306;2023-04-06T09:24:54;13.23;;;8.77;;
15155;SDS011;7678;50.058;8.306;2023-04-06T09:27:31;15.67;;;8.43;;
15155;SDS011;7678;50.058;8.306;2023-04-06T09:30:07;11.27;;;8.37;;
15155;SDS011;7678;50.058;8.306;2023-04-06T09:32:46;13.07;;;8.07;;
15155;SDS011;7678;50.058;8.306;2023-04-06T09:35:16;11.57;;;8.67;;
15155;SDS011;7678;50.058;8.306;2023-04-06T09:37:46;17.43;;;8.20;;
15155;SDS011;7678;50.058;8.306;2023-04-06T09:40:16;10.73;;;7.37;;
15155;SDS011;7678;50.058;8.306;2023-04-06T09:42:46;13.97;;;8.80;;
15155;SDS011;7678;50.058;8.306;2023-04-06T09:45:16;11.37;;;8.67;;
15155;SDS011;7678;50.058;8.306;2023-04-06T09:47:44;12.77;;;8.87;;
15155;SDS011;7678;50.058;8.306;2023-04-06T09:50:14;13.17;;;9.47;;
15155;SDS011;7678;50.058;8.306;2023-04-06T09:52:46;13.17;;;9.20;;
15155;SDS011;7678;50.058;8.306;2023-04-06T09:55:20;16.30;;;8.97;;
15155;SDS011;7678;50.058;8.306;2023-04-06T09:57:53;12.10;;;9.13;;
15155;SDS011;7678;50.058;8.306;2023-04-06T10:00:28;13.67;;;8.17;;
15155;SDS011;7678;50.058;8.306;2023-04-06T10:03:03;12.67;;;8.57;;
15155;SDS011;7678;50.058;8.306;2023-04-06T10:05:41;14.17;;;8.83;;
15155;SDS011;7678;50.058;8.306;2023-04-06T10:08:13;14.60;;;8.97;;
15155;SDS011;7678;50.058;8.306;2023-04-06T10:10:44;11.07;;;8.30;;
15155;SDS011;7678;50.058;8.306;2023-04-06T10:13:13;12.63;;;9.03;;
15155;SDS011;7678;50.058;8.306;2023-04-06T10:15:41;12.33;;;8.77;;
15155;SDS011;7678;50.058;8.306;2023-04-06T10:18:10;12.90;;;9.00;;
15155;SDS011;7678;50.058;8.306;2023-04-06T10:20:39;14.43;;;9.50;;
15155;SDS011;7678;50.058;8.306;2023-04-06T10:23:12;14.67;;;8.27;;
15155;SDS011;7678;50.058;8.306;2023-04-06T10:25:53;11.93;;;8.67;;
15155;SDS011;7678;50.058;8.306;2023-04-06T10:28:22;12.93;;;9.50;;
15155;SDS011;7678;50.058;8.306;2023-04-06T10:30:56;12.00;;;9.00;;
15155;SDS011;7678;50.058;8.306;2023-04-06T10:33:25;14.93;;;9.03;;
15155;SDS011;7678;50.058;8.306;2023-04-06T10:35:53;12.73;;;8.83;;
15155;SDS011;7678;50.058;8.306;2023-04-06T10:38:32;13.70;;;8.37;;
15155;SDS011;7678;50.058;8.306;2023-04-06T10:41:08;11.60;;;9.03;;
15155;SDS011;7678;50.058;8.306;2023-04-06T10:43:37;11.97;;;9.37;;
15155;SDS011;7678;50.058;8.306;2023-04-06T10:46:07;15.20;;;9.67;;
15155;SDS011;7678;50.058;8.306;2023-04-06T10:48:36;12.03;;;9.60;;
15155;SDS011;7678;50.058;8.306;2023-04-06T10:51:10;16.23;;;9.60;;
15155;SDS011;7678;50.058;8.306;2023-04-06T10:53:39;11.17;;;8.97;;
15155;SDS011;7678;50.058;8.306;2023-04-06T10:56:13;15.03;;;10.37;;
15155;SDS011;7678;50.058;8.306;2023-04-06T10:58:44;11.87;;;9.63;;
15155;SDS011;7678;50.058;8.306;2023-04-06T11:01:14;12.53;;;9.57;;
15155;SDS011;7678;50.058;8.306;2023-04-06T11:03:43;12.27;;;9.30;;
15155;SDS011;7678;50.058;8.306;2023-04-06T11:06:17;12.27;;;9.17;;
15155;SDS011;7678;50.058;8.306;2023-04-06T11:08:46;13.80;;;9.53;;
15155;SDS011;7678;50.058;8.306;2023-04-06T11:11:16;15.67;;;10.00;;
15155;SDS011;7678;50.058;8.306;2023-04-06T11:13:46;13.63;;;9.57;;
15155;SDS011;7678;50.058;8.306;2023-04-06T11:16:17;13.30;;;9.53;;
15155;SDS011;7678;50.058;8.306;2023-04-06T11:18:46;20.37;;;10.37;;
15155;SDS011;7678;50.058;8.306;2023-04-06T11:21:20;31.53;;;11.50;;
15155;SDS011;7678;50.058;8.306;2023-04-06T11:24:03;20.27;;;10.37;;
15155;SDS011;7678;50.058;8.306;2023-04-06T11:26:41;17.53;;;9.87;;
15155;SDS011;7678;50.058;8.306;2023-04-06T11:29:11;14.60;;;9.47;;
15155;SDS011;7678;50.058;8.306;2023-04-06T11:31:40;15.20;;;10.17;;
15155;SDS011;7678;50.058;8.306;2023-04-06T11:34:10;24.90;;;11.47;;
15155;SDS011;7678;50.058;8.306;2023-04-06T11:36:39;28.13;;;11.53;;
15155;SDS011;7678;50.058;8.306;2023-04-06T11:39:09;15.73;;;10.53;;
15155;SDS011;7678;50.058;8.306;2023-04-06T11:41:38;15.57;;;10.40;;
15155;SDS011;7678;50.058;8.306;2023-04-06T11:44:10;16.87;;;10.80;;
15155;SDS011;7678;50.058;8.306;2023-04-06T11:46:38;17.47;;;10.20;;
15155;SDS011;7678;50.058;8.306;2023-04-06T11:49:06;15.70;;;8.87;;
15155;SDS011;7678;50.058;8.306;2023-04-06T11:51:35;14.93;;;10.30;;
15155;SDS011;7678;50.058;8.306;2023-04-06T11:54:04;14.10;;;10.27;;
15155;SDS011;7678;50.058;8.306;2023-04-06T11:56:32;17.70;;;10.80;;
15155;SDS011;7678;50.058;8.306;2023-04-06T11:59:00;13.20;;;10.50;;
15155;SDS011;7678;50.058;8.306;2023-04-06T12:01:29;15.43;;;10.37;;
15155;SDS011;7678;50.058;8.306;2023-04-06T12:04:04;13.67;;;9.97;;
15155;SDS011;7678;50.058;8.306;2023-04-06T12:06:32;13.87;;;10.10;;
15155;SDS011;7678;50.058;8.306;2023-04-06T12:09:01;16.73;;;10.50;;
15155;SDS011;7678;50.058;8.306;2023-04-06T12:11:29;14.40;;;10.30;;
15155;SDS011;7678;50.058;8.306;2023-04-06T12:13:57;13.67;;;10.73;;
15155;SDS011;7678;50.058;8.306;2023-04-06T12:16:27;15.20;;;10.43;;
15155;SDS011;7678;50.058;8.306;2023-04-06T12:18:57;14.87;;;10.57;;
15155;SDS011;7678;50.058;8.306;2023-04-06T12:21:26;16.67;;;11.67;;
15155;SDS011;7678;50.058;8.306;2023-04-06T12:23:54;16.27;;;10.60;;
15155;SDS011;7678;50.058;8.306;2023-04-06T12:26:22;14.83;;;10.33;;
15155;SDS011;7678;50.058;8.306;2023-04-06T12:28:51;16.20;;;9.57;;
15155;SDS011;7678;50.058;8.306;2023-04-06T12:31:19;12.17;;;9.47;;
15155;SDS011;7678;50.058;8.306;2023-04-06T12:33:50;11.87;;;8.63;;
15155;SDS011;7678;50.058;8.306;2023-04-06T12:36:19;11.67;;;8.83;;
15155;SDS011;7678;50.058;8.306;2023-04-06T12:38:48;14.90;;;9.20;;
15155;SDS011;7678;50.058;8.306;2023-04-06T12:41:17;11.80;;;7.97;;
15155;SDS011;7678;50.058;8.306;2023-04-06T12:43:46;12.67;;;8.00;;
15155;SDS011;7678;50.058;8.306;2023-04-06T12:46:14;15.37;;;9.43;;
15155;SDS011;7678;50.058;8.306;2023-04-06T12:48:45;13.40;;;9.60;;
15155;SDS011;7678;50.058;8.306;2023-04-06T12:51:15;15.30;;;9.43;;
15155;SDS011;7678;50.058;8.306;2023-04-06T12:53:44;13.40;;;9.77;;
15155;SDS011;7678;50.058;8.306;2023-04-06T12:56:12;13.90;;;8.90;;
15155;SDS011;7678;50.058;8.306;2023-04-06T12:58:41;10.40;;;8.33;;
15155;SDS011;7678;50.058;8.306;2023-04-06T13:01:10;13.00;;;9.20;;
15155;SDS011;7678;50.058;8.306;2023-04-06T13:03:48;13.73;;;9.60;;
15155;SDS011;7678;50.058;8.306;2023-04-06T13:06:19;14.37;;;8.63;;
15155;SDS011;7678;50.058;8.306;2023-04-06T13:08:47;13.37;;;9.87;;
15155;SDS011;7678;50.058;8.306;2023-04-06T13:11:17;11.27;;;8.90;;
15155;SDS011;7678;50.058;8.306;2023-04-06T13:13:46;14.63;;;9.87;;
15155;SDS011;7678;50.058;8.306;2023-04-06T13:16:14;14.33;;;9.10;;
15155;SDS011;7678;50.058;8.306;2023-04-06T13:18:43;11.57;;;9.10;;
15155;SDS011;7678;50.058;8.306;2023-04-06T13:21:13;10.83;;;8.87;;
15155;SDS011;7678;50.058;8.306;2023-04-06T13:23:44;11.70;;;9.10;;
15155;SDS011;7678;50.058;8.306;2023-04-06T13:26:12;11.87;;;8.30;;
15155;SDS011;7678;50.058;8.306;2023-04-06T13:28:41;11.93;;;8.63;;
15155;SDS011;7678;50.058;8.306;2023-04-06T13:31:09;13.10;;;9.47;;
15155;SDS011;7678;50.058;8.306;2023-04-06T13:33:38;13.10;;;9.30;;
15155;SDS011;7678;50.058;8.306;2023-04-06T13:36:07;12.47;;;9.30;;
15155;SDS011;7678;50.058;8.306;2023-04-06T13:38:35;12.70;;;8.00;;
15155;SDS011;7678;50.058;8.306;2023-04-06T13:41:06;11.77;;;7.67;;
15155;SDS011;7678;50.058;8.306;2023-04-06T13:43:34;10.10;;;7.40;;
15155;SDS011;7678;50.058;8.306;2023-04-06T13:46:02;12.43;;;7.57;;
15155;SDS011;7678;50.058;8.306;2023-04-06T13:48:31;10.67;;;7.57;;
15155;SDS011;7678;50.058;8.306;2023-04-06T13:51:07;13.27;;;7.53;;
15155;SDS011;7678;50.058;8.306;2023-04-06T13:53:36;9.83;;;7.37;;
15155;SDS011;7678;50.058;8.306;2023-04-06T13:56:08;11.63;;;7.57;;
15155;SDS011;7678;50.058;8.306;2023-04-06T13:58:36;11.73;;;7.10;;
15155;SDS011;7678;50.058;8.306;2023-04-06T14:01:04;11.33;;;8.10;;
15155;SDS011;7678;50.058;8.306;2023-04-06T14:03:34;11.37;;;7.60;;
15155;SDS011;7678;50.058;8.306;2023-04-06T14:06:09;10.37;;;7.10;;
15155;SDS011;7678;50.058;8.306;2023-04-06T14:08:52;11.43;;;8.23;;
15155;SDS011;7678;50.058;8.306;2023-04-06T14:11:22;10.10;;;7.80;;
15155;SDS011;7678;50.058;8.306;2023-04-06T14:13:50;9.90;;;7.47;;
15155;SDS011;7678;50.058;8.306;2023-04-06T14:16:19;9.47;;;7.43;;
15155;SDS011;7678;50.058;8.306;2023-04-06T14:18:49;12.23;;;7.80;;
15155;SDS011;7678;50.058;8.306;2023-04-06T14:21:17;11.57;;;7.17;;
15155;SDS011;7678;50.058;8.306;2023-04-06T14:23:46;9.20;;;7.53;;
15155;SDS011;7678;50.058;8.306;2023-04-06T14:26:14;9.73;;;7.23;;
15155;SDS011;7678;50.058;8.306;2023-04-06T14:28:44;11.77;;;6.60;;
15155;SDS011;7678;50.058;8.306;2023-04-06T14:31:13;12.40;;;7.03;;
15155;SDS011;7678;50.058;8.306;2023-04-06T14:33:41;9.73;;;6.33;;
15155;SDS011;7678;50.058;8.306;2023-04-06T14:36:10;10.37;;;7.00;;
15155;SDS011;7678;50.058;8.306;2023-04-06T14:38:38;10.03;;;7.40;;
15155;SDS011;7678;50.058;8.306;2023-04-06T14:41:07;10.03;;;7.60;;
15155;SDS011;7678;50.058;8.306;2023-04-06T14:43:36;9.63;;;6.63;;
15155;SDS011;7678;50.058;8.306;2023-04-06T14:46:06;8.07;;;6.07;;
15155;SDS011;7678;50.058;8.306;2023-04-06T14:48:35;10.93;;;7.00;;
15155;SDS011;7678;50.058;8.306;2023-04-06T14:51:03;10.60;;;6.97;;
15155;SDS011;7678;50.058;8.306;2023-04-06T14:53:31;10.90;;;7.00;;
15155;SDS011;7678;50.058;8.306;2023-04-06T14:55:59;9.40;;;6.87;;
15155;SDS011;7678;50.058;8.306;2023-04-06T14:58:27;6.73;;;5.40;;
15155;SDS011;7678;50.058;8.306;2023-04-06T15:00:55;8.53;;;5.80;;
15155;SDS011;7678;50.058;8.306;2023-04-06T15:03:25;6.77;;;5.27;;
15155;SDS011;7678;50.058;8.306;2023-04-06T15:05:54;7.10;;;5.00;;